Time;durP1;ratioP1;P1;durP2;ratioP2;P2;SDS_P1;SDS_P2;PMS_P1;PMS_P2;Temp;Humidity;BMP_temperature;BMP_pressure;BME280_temperature;BME280_humidity;BME280_pressure;Samples;Min_cycle;Max_cycle;Signal;HPM_P1;HPM_P2
2023/10/20 00:01:44;;;;;;;16.80;8.80;;;;;;;13.94;100.00;98498.94;5060793;28;20476;-73
2023/10/20 00:04:09;;;;;;;17.80;9.02;;;;;;;14.01;100.00;98504.78;5061729;28;20029;-73
2023/10/20 00:06:34;;;;;;;19.15;9.20;;;;;;;14.03;100.00;98496.47;5061257;28;20025;-73
2023/10/20 00:09:03;;;;;;;17.25;9.55;;;;;;;13.96;100.00;98488.75;5042839;28;20061;-73
2023/10/20 00:11:28;;;;;;;18.52;9.40;;;;;;;13.99;100.00;98496.25;5044140;28;20036;-73
2023/10/20 00:13:54;;;;;;;19.10;10.18;;;;;;;13.93;100.00;98488.50;5059960;28;20114;-73
2023/10/20 00:16:27;;;;;;;16.23;9.43;;;;;;;13.93;100.00;98489.28;5043583;28;20629;-73
2023/10/20 00:18:52;;;;;;;18.08;9.13;;;;;;;13.93;100.00;98480.44;5061821;28;20037;-73
2023/10/20 00:21:18;;;;;;;17.33;10.13;;;;;;;13.92;100.00;98478.88;5061740;28;20040;-73
2023/10/20 00:23:44;;;;;;;20.35;10.07;;;;;;;13.93;100.00;98475.88;5062099;28;20029;-73
2023/10/20 00:26:09;;;;;;;17.20;9.45;;;;;;;13.94;100.00;98480.19;5062279;28;20036;-73
2023/10/20 00:28:34;;;;;;;17.98;9.13;;;;;;;13.90;100.00;98473.78;5061563;28;20032;-73
2023/10/20 00:31:00;;;;;;;17.75;8.82;;;;;;;13.90;100.00;98470.28;5025901;28;20399;-73
2023/10/20 00:33:25;;;;;;;16.08;9.10;;;;;;;13.91;100.00;98467.34;5041763;28;20043;-73
2023/10/20 00:35:50;;;;;;;20.40;9.73;;;;;;;13.89;100.00;98464.13;5045509;28;20028;-73
2023/10/20 00:38:16;;;;;;;16.75;9.50;;;;;;;13.87;100.00;98454.78;5061457;28;20060;-73
2023/10/20 00:40:48;;;;;;;20.67;9.25;;;;;;;13.86;100.00;98445.94;5067334;28;20368;-73
2023/10/20 00:43:13;;;;;;;21.83;9.35;;;;;;;13.82;100.00;98443.00;5063871;28;20031;-73
2023/10/20 00:45:40;;;;;;;17.48;8.50;;;;;;;13.80;100.00;98431.75;5047062;28;20028;-73
2023/10/20 00:48:07;;;;;;;20.13;10.02;;;;;;;13.79;100.00;98415.97;5063050;28;20032;-73
2023/10/20 00:50:33;;;;;;;16.10;8.63;;;;;;;13.78;100.00;98409.00;5062495;28;20028;-73
2023/10/20 00:53:00;;;;;;;19.05;8.82;;;;;;;13.73;100.00;98398.34;5044846;28;20117;-73
2023/10/20 00:55:26;;;;;;;16.33;8.73;;;;;;;13.77;100.00;98407.41;5062859;28;20036;-73
2023/10/20 00:57:53;;;;;;;18.80;9.65;;;;;;;13.75;100.00;98402.34;5045202;28;20025;-73
2023/10/20 01:00:20;;;;;;;19.48;10.45;;;;;;;13.72;100.00;98400.19;5063226;28;20024;-74
2023/10/20 01:02:46;;;;;;;21.23;9.80;;;;;;;13.70;100.00;98391.66;5029128;28;20050;-73
2023/10/20 01:05:19;;;;;;;17.92;9.57;;;;;;;13.71;100.00;98390.56;5064838;28;20487;-73
2023/10/20 01:07:44;;;;;;;19.48;9.85;;;;;;;13.71;100.00;98387.88;5030128;28;20507;-73
2023/10/20 01:10:10;;;;;;;18.65;9.02;;;;;;;13.63;100.00;98368.94;5029297;28;20206;-73
2023/10/20 01:12:35;;;;;;;19.92;10.20;;;;;;;13.62;100.00;98367.31;5037400;28;20108;-73
2023/10/20 01:15:04;;;;;;;16.95;9.38;;;;;;;13.57;100.00;98358.25;5064810;28;20045;-73
2023/10/20 01:17:30;;;;;;;18.25;9.07;;;;;;;13.64;100.00;98365.97;5064063;28;20092;-73
2023/10/20 01:19:56;;;;;;;17.85;9.60;;;;;;;13.67;100.00;98373.44;5044587;28;20052;-73
2023/10/20 01:22:22;;;;;;;18.45;10.02;;;;;;;13.67;100.00;98365.41;5066089;28;20059;-73
2023/10/20 01:24:47;;;;;;;18.58;9.55;;;;;;;13.65;100.00;98353.38;5064018;28;20452;-73
2023/10/20 01:27:13;;;;;;;19.98;10.13;;;;;;;13.62;100.00;98345.88;5047678;28;20112;-73
2023/10/20 01:29:38;;;;;;;20.45;11.02;;;;;;;13.62;100.00;98335.97;5029480;28;20048;-73
2023/10/20 01:32:04;;;;;;;20.40;10.18;;;;;;;13.58;100.00;98329.59;5061563;28;20115;-73
2023/10/20 01:34:29;;;;;;;20.45;11.73;;;;;;;13.50;100.00;98317.59;5047502;28;20512;-73
2023/10/20 01:36:54;;;;;;;19.75;11.88;;;;;;;13.54;100.00;98323.97;5044138;28;20037;-73
2023/10/20 01:39:20;;;;;;;20.58;10.52;;;;;;;13.38;100.00;98304.53;5031599;28;20024;-73
2023/10/20 01:41:46;;;;;;;20.40;10.95;;;;;;;13.45;100.00;98314.16;5065429;28;20036;-73
2023/10/20 01:44:13;;;;;;;22.50;11.00;;;;;;;13.50;100.00;98333.66;5065460;28;20142;-73
2023/10/20 01:46:38;;;;;;;27.42;10.30;;;;;;;13.49;100.00;98334.75;5046067;28;20095;-73
2023/10/20 01:49:05;;;;;;;20.15;10.73;;;;;;;13.44;100.00;98323.25;5066016;28;20603;-73
2023/10/20 01:51:31;;;;;;;18.77;9.50;;;;;;;13.47;100.00;98331.53;5039390;28;20377;-73
2023/10/20 01:53:56;;;;;;;19.58;10.15;;;;;;;13.35;100.00;98305.09;5046112;28;20051;-73
2023/10/20 01:56:22;;;;;;;18.40;9.10;;;;;;;13.42;100.00;98312.03;5044603;28;20078;-73
2023/10/20 01:58:47;;;;;;;19.00;9.07;;;;;;;13.44;100.00;98304.50;5063148;28;20052;-73
2023/10/20 02:01:12;;;;;;;19.13;9.50;;;;;;;13.40;100.00;98304.25;5063552;28;20035;-73
2023/10/20 02:03:38;;;;;;;19.95;9.57;;;;;;;13.41;100.00;98305.84;5020449;28;20054;-73
2023/10/20 02:06:04;;;;;;;22.75;11.07;;;;;;;13.41;100.00;98292.47;5030505;28;20028;-73
2023/10/20 02:08:29;;;;;;;20.38;10.57;;;;;;;13.41;100.00;98289.78;5026925;28;20064;-73
2023/10/20 02:10:55;;;;;;;17.45;9.35;;;;;;;13.36;100.00;98276.44;5043344;28;20033;-73
2023/10/20 02:13:20;;;;;;;21.55;10.23;;;;;;;13.37;100.00;98273.50;5063230;28;20499;-73
2023/10/20 02:15:47;;;;;;;20.25;12.05;;;;;;;13.35;100.00;98262.25;5062061;28;20458;-73
2023/10/20 02:18:13;;;;;;;21.27;10.63;;;;;;;13.33;100.00;98250.22;5063613;28;20038;-73
2023/10/20 02:20:38;;;;;;;19.63;10.88;;;;;;;13.37;100.00;98264.66;5045927;28;20028;-73
2023/10/20 02:23:04;;;;;;;18.58;9.77;;;;;;;13.27;100.00;98251.34;5061748;28;20029;-73
2023/10/20 02:25:29;;;;;;;22.00;10.40;;;;;;;13.36;100.00;98268.41;5045331;28;20041;-74
2023/10/20 02:27:55;;;;;;;24.55;11.02;;;;;;;13.35;100.00;98253.44;5062238;28;20028;-73
2023/10/20 02:30:21;;;;;;;22.40;11.57;;;;;;;13.35;100.00;98256.91;5044449;28;20025;-73
2023/10/20 02:32:46;;;;;;;21.55;10.95;;;;;;;13.30;100.00;98234.72;5044228;28;20060;-73
2023/10/20 02:35:13;;;;;;;18.98;10.10;;;;;;;13.33;100.00;98234.97;5044886;28;20033;-73
2023/10/20 02:37:38;;;;;;;22.15;10.98;;;;;;;13.28;100.00;98227.00;5062860;28;20083;-73
2023/10/20 02:40:05;;;;;;;22.70;12.10;;;;;;;13.29;100.00;98225.09;5044293;28;20488;-73
2023/10/20 02:42:33;;;;;;;21.58;11.27;;;;;;;13.21;100.00;98207.72;5045573;28;20037;-73
2023/10/20 02:44:59;;;;;;;20.13;10.30;;;;;;;13.28;100.00;98207.44;5062095;28;20032;-73
2023/10/20 02:47:24;;;;;;;20.15;11.05;;;;;;;13.29;100.00;98209.06;5044159;28;20495;-73
2023/10/20 02:49:55;;;;;;;21.05;10.25;;;;;;;13.26;100.00;98196.19;5062709;28;20480;-73
2023/10/20 02:52:21;;;;;;;19.77;11.13;;;;;;;13.28;100.00;98197.53;5026835;28;20040;-73
2023/10/20 02:54:47;;;;;;;19.30;10.70;;;;;;;13.24;100.00;98188.44;5063720;28;20551;-73
2023/10/20 02:57:12;;;;;;;21.52;11.27;;;;;;;13.26;100.00;98188.16;5026418;28;20055;-73
2023/10/20 02:59:38;;;;;;;19.05;9.93;;;;;;;13.25;100.00;98178.53;5043014;28;20025;-73
2023/10/20 03:02:03;;;;;;;20.05;10.20;;;;;;;13.21;100.00;98166.78;5026263;28;20105;-73
2023/10/20 03:04:29;;;;;;;24.00;11.00;;;;;;;13.26;100.00;98172.09;5061635;28;20074;-73
2023/10/20 03:06:54;;;;;;;18.92;10.45;;;;;;;13.26;100.00;98169.44;5063566;28;20036;-73
2023/10/20 03:09:19;;;;;;;20.55;11.45;;;;;;;13.18;100.00;98143.25;5037969;28;20061;-73
2023/10/20 03:11:45;;;;;;;22.65;12.20;;;;;;;13.26;100.00;98150.69;5041852;28;20025;-73
2023/10/20 03:14:11;;;;;;;20.90;10.63;;;;;;;13.23;100.00;98132.50;5042713;28;20388;-73
2023/10/20 03:16:42;;;;;;;20.58;9.80;;;;;;;13.14;100.00;98126.97;5041344;28;20028;-73
2023/10/20 03:19:08;;;;;;;22.73;12.02;;;;;;;13.23;100.00;98132.50;5044784;28;20037;-73
2023/10/20 03:21:33;;;;;;;21.42;11.88;;;;;;;13.22;100.00;98136.25;5040706;28;20026;-74
2023/10/20 03:23:58;;;;;;;21.05;11.30;;;;;;;13.20;100.00;98141.09;5041004;28;20079;-74
2023/10/20 03:26:24;;;;;;;20.70;11.07;;;;;;;13.19;100.00;98134.94;5043236;28;20030;-74
2023/10/20 03:28:49;;;;;;;20.67;10.73;;;;;;;13.21;100.00;98142.72;5023654;28;20480;-74
2023/10/20 03:31:15;;;;;;;23.92;12.90;;;;;;;13.21;100.00;98146.19;5039474;28;20136;-74
2023/10/20 03:33:40;;;;;;;21.00;10.60;;;;;;;13.21;100.00;98140.03;5041395;28;20036;-74
2023/10/20 03:36:08;;;;;;;22.40;11.13;;;;;;;13.22;100.00;98136.25;5042070;28;20030;-74
2023/10/20 03:38:33;;;;;;;22.17;13.75;;;;;;;13.21;100.00;98124.75;5041457;28;20094;-74
2023/10/20 03:41:06;;;;;;;25.02;13.35;;;;;;;13.21;100.00;98122.09;5039877;28;20119;-74
2023/10/20 03:43:32;;;;;;;23.83;12.07;;;;;;;13.21;100.00;98107.91;5039864;28;20033;-74
2023/10/20 03:45:59;;;;;;;22.95;11.68;;;;;;;13.20;100.00;98101.75;5040411;28;20044;-74
2023/10/20 03:48:27;;;;;;;25.63;14.50;;;;;;;13.21;100.00;98107.91;5040599;28;20033;-74
2023/10/20 03:50:53;;;;;;;24.17;12.65;;;;;;;13.19;100.00;98110.84;5040284;28;20029;-74
2023/10/20 03:53:22;;;;;;;22.83;11.13;;;;;;;13.23;100.00;98116.44;5041504;28;20475;-74
2023/10/20 03:56:01;;;;;;;24.92;13.52;;;;;;;13.22;100.00;98112.19;5022738;28;20735;-73
2023/10/20 03:58:29;;;;;;;22.50;12.45;;;;;;;13.23;100.00;98100.38;5023652;28;20021;-73
2023/10/20 04:00:57;;;;;;;22.15;12.02;;;;;;;13.24;100.00;98086.72;5042002;28;20139;-74
2023/10/20 04:03:22;;;;;;;22.70;11.20;;;;;;;13.26;100.00;98073.06;5043393;28;20013;-74
2023/10/20 04:05:48;;;;;;;23.02;12.52;;;;;;;13.22;100.00;98083.53;5040962;28;20036;-74
2023/10/20 04:08:13;;;;;;;24.30;12.65;;;;;;;13.19;100.00;98075.28;5038388;28;20125;-74
2023/10/20 04:10:39;;;;;;;19.98;10.35;;;;;;;13.21;100.00;98081.16;5019253;28;20684;-74
2023/10/20 04:13:04;;;;;;;24.30;12.55;;;;;;;13.24;100.00;98080.59;5038317;28;20037;-74
2023/10/20 04:15:32;;;;;;;22.40;12.68;;;;;;;13.25;100.00;98079.50;5040887;28;20044;-74
2023/10/20 04:17:58;;;;;;;21.38;11.48;;;;;;;13.21;100.00;98067.78;5041327;28;20028;-74
2023/10/20 04:20:24;;;;;;;21.90;10.82;;;;;;;13.23;100.00;98053.03;5041449;28;20037;-74
2023/10/20 04:22:49;;;;;;;22.33;11.85;;;;;;;13.22;100.00;98056.75;5041272;28;20039;-74
2023/10/20 04:25:19;;;;;;;20.55;10.07;;;;;;;13.22;100.00;98058.66;5022828;28;20037;-74
2023/10/20 04:27:57;;;;;;;23.42;12.88;;;;;;;13.24;100.00;98051.13;5039510;28;20029;-74
2023/10/20 04:54:45;;;;;;;26.88;14.07;;;;;;;13.16;100.00;97966.91;5041160;28;20178;-73
2023/10/20 04:59:44;;;;;;;24.17;15.43;;;;;;;13.11;100.00;97937.53;5040825;28;20053;-73
2023/10/20 05:02:24;;;;;;;27.45;15.40;;;;;;;13.26;100.00;97956.13;5022394;28;20032;-73
2023/10/20 05:04:52;;;;;;;25.23;15.45;;;;;;;13.24;100.00;97950.22;5041918;28;20493;-73
2023/10/20 05:07:18;;;;;;;23.33;13.63;;;;;;;13.13;100.00;97930.81;5038435;28;20030;-73
2023/10/20 05:09:44;;;;;;;29.02;13.95;;;;;;;13.15;100.00;97917.13;5063792;28;20391;-73
2023/10/20 05:12:10;;;;;;;24.50;14.40;;;;;;;13.23;100.00;97924.56;5060189;28;20029;-73
2023/10/20 05:14:36;;;;;;;22.83;13.40;;;;;;;13.14;100.00;97910.19;5042648;28;20039;-73
2023/10/20 05:17:01;;;;;;;23.83;13.13;;;;;;;13.14;100.00;97908.31;5061059;28;20064;-73
2023/10/20 05:19:32;;;;;;;24.23;14.63;;;;;;;13.30;100.00;97935.72;5059684;28;20044;-73
2023/10/20 05:21:57;;;;;;;25.50;15.13;;;;;;;13.28;100.00;97929.88;5061857;28;20036;-73
2023/10/20 05:24:23;;;;;;;25.55;14.55;;;;;;;13.33;100.00;97920.97;5046100;28;20029;-73
2023/10/20 05:26:48;;;;;;;26.88;14.95;;;;;;;13.33;100.00;97908.38;5046850;28;20032;-73
2023/10/20 05:29:14;;;;;;;23.83;13.65;;;;;;;13.34;100.00;97901.97;5061452;28;20079;-73
2023/10/20 05:31:39;;;;;;;24.63;14.32;;;;;;;13.15;100.00;97877.81;5065131;28;20071;-73
2023/10/20 05:34:05;;;;;;;24.40;13.38;;;;;;;13.31;100.00;97896.41;5044368;28;20029;-73
2023/10/20 05:36:30;;;;;;;31.90;16.27;;;;;;;13.33;100.00;97903.03;5064003;28;20028;-73
2023/10/20 05:38:56;;;;;;;30.90;15.43;;;;;;;13.33;100.00;97915.63;5062666;28;20071;-74
2023/10/20 05:41:22;;;;;;;25.50;15.02;;;;;;;13.32;100.00;97914.81;5064266;28;20032;-74
2023/10/20 05:43:47;;;;;;;24.83;15.43;;;;;;;13.20;100.00;97903.69;5027695;28;20369;-73
2023/10/20 05:46:15;;;;;;;24.55;14.95;;;;;;;13.27;100.00;97916.78;5063521;28;20120;-73
2023/10/20 05:48:41;;;;;;;23.58;14.15;;;;;;;13.34;100.00;97933.28;5063510;28;20046;-73
2023/10/20 05:51:06;;;;;;;24.42;13.90;;;;;;;13.20;100.00;97894.88;5046412;28;20025;-73
2023/10/20 05:53:31;;;;;;;23.60;14.68;;;;;;;13.28;100.00;97905.78;5064700;28;20425;-73
2023/10/20 05:55:57;;;;;;;25.88;15.70;;;;;;;13.23;100.00;97896.97;5046343;28;20026;-73
2023/10/20 05:58:23;;;;;;;25.70;15.45;;;;;;;13.28;100.00;97903.13;5063143;28;20031;-73
2023/10/20 06:00:48;;;;;;;22.95;15.25;;;;;;;13.29;100.00;97904.69;5046527;28;20032;-73
2023/10/20 06:03:14;;;;;;;23.13;14.20;;;;;;;13.17;100.00;97890.88;5064367;28;20024;-73
2023/10/20 06:05:39;;;;;;;25.15;15.02;;;;;;;13.16;100.00;97890.09;5028726;28;20373;-73
2023/10/20 06:08:05;;;;;;;27.65;17.33;;;;;;;13.20;100.00;97897.56;5063241;28;20064;-73
2023/10/20 06:10:31;;;;;;;26.23;16.10;;;;;;;13.07;100.00;97878.44;5045598;28;20025;-73
2023/10/20 06:12:57;;;;;;;31.85;17.90;;;;;;;13.06;100.00;97876.84;5063169;28;20778;-73
2023/10/20 06:15:22;;;;;;;24.55;15.80;;;;;;;13.13;100.00;97889.88;5027923;28;20032;-73
2023/10/20 06:17:49;;;;;;;27.85;16.17;;;;;;;13.09;100.00;97875.47;5063264;28;20032;-73
2023/10/20 06:20:15;;;;;;;25.00;14.93;;;;;;;13.11;100.00;97882.13;5062579;28;20512;-73
2023/10/20 06:22:42;;;;;;;25.52;15.73;;;;;;;13.08;100.00;97892.63;5047763;28;20549;-74
2023/10/20 06:25:14;;;;;;;24.02;16.48;;;;;;;13.10;100.00;97911.88;5044284;28;20111;-74
2023/10/20 06:27:43;;;;;;;27.00;15.55;;;;;;;13.10;100.00;97909.19;5044188;28;20073;-73
2023/10/20 06:30:21;;;;;;;28.20;14.57;;;;;;;13.08;100.00;97893.41;5061500;28;20033;-73
2023/10/20 06:32:56;;;;;;;26.27;15.88;;;;;;;13.07;100.00;97872.28;5039731;28;20025;-74
2023/10/20 06:35:28;;;;;;;27.70;16.63;;;;;;;13.02;100.00;97867.81;5042658;28;20021;-74
2023/10/20 06:38:10;;;;;;;26.25;14.75;;;;;;;13.07;100.00;97873.09;5058285;28;20028;-74
2023/10/20 06:40:36;;;;;;;29.75;15.32;;;;;;;13.01;100.00;97868.88;5059861;28;20107;-73
2023/10/20 06:43:02;;;;;;;28.20;15.98;;;;;;;13.07;100.00;97874.97;5060502;28;20081;-73
2023/10/20 06:45:27;;;;;;;27.00;14.82;;;;;;;13.06;100.00;97879.53;5062940;28;20029;-73
2023/10/20 06:47:52;;;;;;;27.40;14.50;;;;;;;13.04;100.00;97881.69;5061309;28;20071;-73
2023/10/20 06:50:18;;;;;;;27.13;15.95;;;;;;;13.06;100.00;97886.75;5044649;28;20032;-73
2023/10/20 06:52:43;;;;;;;26.73;16.33;;;;;;;13.05;100.00;97871.78;5055133;28;20032;-73
2023/10/20 06:55:09;;;;;;;28.02;15.98;;;;;;;13.00;100.00;97861.16;5061979;28;20028;-73
2023/10/20 06:57:34;;;;;;;27.30;16.45;;;;;;;13.00;100.00;97866.50;5060989;28;20039;-73
2023/10/20 07:00:00;;;;;;;25.58;14.45;;;;;;;13.02;100.00;97875.00;5040232;28;20356;-73
2023/10/20 07:02:26;;;;;;;25.52;15.15;;;;;;;12.98;100.00;97856.06;5040954;28;20033;-73
2023/10/20 07:04:51;;;;;;;27.40;16.05;;;;;;;12.96;100.00;97862.78;5061615;28;20025;-74
2023/10/20 07:07:18;;;;;;;26.98;15.88;;;;;;;12.82;100.00;97834.06;5054024;28;20465;-73
2023/10/20 07:09:47;;;;;;;27.60;14.38;;;;;;;12.90;100.00;97857.50;5059392;28;20036;-72
2023/10/20 07:12:14;;;;;;;23.70;14.93;;;;;;;12.85;100.00;97854.88;5060426;28;20476;-73
2023/10/20 07:14:42;;;;;;;25.45;15.18;;;;;;;12.83;100.00;97850.91;5060911;28;20032;-74
2023/10/20 07:17:07;;;;;;;25.05;15.13;;;;;;;12.71;100.00;97844.09;5054032;28;20502;-74
2023/10/20 07:19:33;;;;;;;22.92;13.35;;;;;;;12.76;100.00;97855.78;5069077;28;20033;-74
2023/10/20 07:22:02;;;;;;;24.85;14.02;;;;;;;12.72;100.00;97851.00;5069390;28;20041;-74
2023/10/20 07:24:29;;;;;;;25.13;14.00;;;;;;;12.74;100.00;97849.94;5067536;28;20021;-73
2023/10/20 07:26:54;;;;;;;25.10;12.40;;;;;;;12.72;100.00;97847.53;5049199;28;20350;-72
2023/10/20 07:29:20;;;;;;;23.05;13.68;;;;;;;12.67;100.00;97847.59;5066341;28;20091;-73
2023/10/20 07:31:47;;;;;;;24.33;12.82;;;;;;;12.67;100.00;97844.94;5068738;28;20395;-76
2023/10/20 07:34:15;;;;;;;25.27;12.10;;;;;;;12.64;100.00;97851.63;5058187;28;20073;-75
2023/10/20 07:36:41;;;;;;;24.92;12.15;;;;;;;12.62;100.00;97848.44;5055628;28;20048;-75
2023/10/20 07:39:15;;;;;;;25.45;11.38;;;;;;;12.60;100.00;97853.31;5061644;28;20371;-75
2023/10/20 07:41:40;;;;;;;22.13;12.10;;;;;;;12.50;100.00;97834.69;5047419;28;20044;-75
2023/10/20 07:44:06;;;;;;;22.73;12.77;;;;;;;12.53;100.00;97842.13;5052767;28;20028;-75
2023/10/20 07:46:31;;;;;;;24.60;13.35;;;;;;;12.55;100.00;97845.34;5065959;28;20074;-75
2023/10/20 07:48:57;;;;;;;24.48;13.02;;;;;;;12.49;100.00;97833.09;5042754;28;20036;-73
2023/10/20 07:51:23;;;;;;;22.60;10.65;;;;;;;12.50;100.00;97842.72;5040466;28;20036;-73
2023/10/20 07:53:48;;;;;;;21.55;10.95;;;;;;;12.47;100.00;97844.06;5047180;28;20036;-76
2023/10/20 07:56:13;;;;;;;21.42;11.48;;;;;;;12.46;100.00;97837.13;5041991;28;20043;-75
2023/10/20 07:58:39;;;;;;;22.30;11.00;;;;;;;12.43;100.00;97827.00;5061537;28;20040;-70
2023/10/20 08:01:06;;;;;;;21.42;10.32;;;;;;;12.42;100.00;97838.00;5053083;28;20107;-72
2023/10/20 08:03:32;;;;;;;21.50;11.55;;;;;;;12.35;100.00;97824.94;5056246;28;20028;-73
2023/10/20 08:05:59;;;;;;;20.70;10.77;;;;;;;12.33;100.00;97832.44;5049768;28;20037;-70
2023/10/20 08:08:25;;;;;;;19.67;8.88;;;;;;;12.28;100.00;97806.56;5052522;28;20067;-71
2023/10/20 08:10:50;;;;;;;18.25;7.80;;;;;;;12.30;100.00;97814.31;5056475;28;20948;-69
2023/10/20 08:13:15;;;;;;;20.85;11.27;;;;;;;12.26;100.00;97810.59;5064516;28;20036;-72
2023/10/20 08:15:42;;;;;;;17.50;8.82;;;;;;;12.21;100.00;97816.81;5047367;28;20054;-72
2023/10/20 08:18:07;;;;;;;17.00;8.52;;;;;;;12.19;100.00;97824.28;5057753;28;20044;-71
2023/10/20 08:20:33;;;;;;;16.42;8.05;;;;;;;12.13;100.00;97817.41;5056206;28;20028;-71
2023/10/20 08:23:00;;;;;;;15.80;7.40;;;;;;;12.13;100.00;97825.44;5040202;28;20369;-71
2023/10/20 08:25:25;;;;;;;17.52;8.60;;;;;;;12.12;100.00;97828.38;5054585;28;20503;-75
2023/10/20 08:27:51;;;;;;;16.88;8.27;;;;;;;12.03;100.00;97814.84;5046682;28;20052;-72
2023/10/20 08:30:16;;;;;;;18.63;7.95;;;;;;;12.10;100.00;97833.19;5056657;28;20032;-76
2023/10/20 08:32:42;;;;;;;16.80;8.98;;;;;;;12.05;100.00;97828.69;5061305;28;20100;-74
2023/10/20 08:35:08;;;;;;;17.45;8.70;;;;;;;12.01;100.00;97830.34;5056977;28;20040;-75
2023/10/20 08:37:35;;;;;;;15.90;8.10;;;;;;;11.97;100.00;97829.28;5033395;28;20028;-74
2023/10/20 08:40:00;;;;;;;13.38;6.85;;;;;;;11.95;100.00;97831.47;5031575;28;20435;-72
2023/10/20 08:42:26;;;;;;;13.38;6.47;;;;;;;11.90;100.00;97831.50;5062020;28;20037;-75
2023/10/20 08:44:51;;;;;;;12.55;5.80;;;;;;;11.87;100.00;97837.38;5059162;28;20029;-74
2023/10/20 08:47:17;;;;;;;14.18;6.43;;;;;;;11.85;100.00;97829.63;5054288;28;20111;-75
2023/10/20 08:49:43;;;;;;;13.32;5.97;;;;;;;11.81;100.00;97817.91;5047952;28;20071;-71
2023/10/20 08:52:11;;;;;;;10.50;5.15;;;;;;;11.78;100.00;97827.28;5055418;28;20021;-72
2023/10/20 08:54:37;;;;;;;9.43;5.70;;;;;;;11.75;100.00;97827.84;5054221;28;20029;-73
2023/10/20 08:57:03;;;;;;;14.93;5.72;;;;;;;11.64;100.00;97810.31;5060053;28;20031;-73
2023/10/20 08:59:29;;;;;;;11.18;5.57;;;;;;;11.66;100.00;97821.50;5064489;28;20029;-72
2023/10/20 09:01:55;;;;;;;8.75;4.35;;;;;;;11.64;100.00;97815.66;5059779;28;20041;-71
2023/10/20 09:04:24;;;;;;;8.48;5.13;;;;;;;11.63;100.00;97822.03;5059184;28;20411;-73
2023/10/20 09:06:50;;;;;;;9.02;4.28;;;;;;;11.65;100.00;97819.09;5054404;28;20025;-71
2023/10/20 09:09:17;;;;;;;9.52;4.47;;;;;;;11.56;100.00;97816.25;5062823;28;20060;-73
2023/10/20 09:11:43;;;;;;;9.32;4.90;;;;;;;11.62;100.00;97825.78;5061575;28;20039;-73
2023/10/20 09:14:09;;;;;;;7.63;3.92;;;;;;;11.57;100.00;97825.84;5063423;28;20438;-71
2023/10/20 09:16:34;;;;;;;7.20;4.53;;;;;;;11.61;100.00;97834.88;5045805;28;20062;-71
2023/10/20 09:19:00;;;;;;;9.60;4.90;;;;;;;11.47;100.00;97809.88;5061748;28;20032;-71
2023/10/20 09:21:28;;;;;;;7.80;3.90;;;;;;;11.53;100.00;97825.59;5041172;28;20024;-71
2023/10/20 09:23:57;;;;;;;7.28;3.65;;;;;;;11.49;100.00;97823.75;5053894;28;20029;-71
2023/10/20 09:26:24;;;;;;;6.60;4.35;;;;;;;11.47;100.00;97817.88;5062801;28;20035;-71
2023/10/20 09:28:53;;;;;;;5.88;3.47;;;;;;;11.46;100.00;97819.78;5056024;28;20056;-71
2023/10/20 09:31:19;;;;;;;6.63;3.70;;;;;;;11.43;100.00;97812.31;5057666;28;20389;-70
2023/10/20 09:33:45;;;;;;;6.38;4.10;;;;;;;11.40;100.00;97804.88;5053373;28;20040;-70
2023/10/20 09:36:12;;;;;;;5.07;3.40;;;;;;;11.39;100.00;97801.38;5060810;28;20045;-71
2023/10/20 09:38:38;;;;;;;4.78;3.45;;;;;;;11.35;100.00;97813.69;5059609;28;20075;-71
2023/10/20 09:41:11;;;;;;;5.45;3.40;;;;;;;11.37;100.00;97824.91;5059626;28;20476;-71
2023/10/20 09:44:02;;;;;;;6.00;3.40;;;;;;;11.35;100.00;97824.38;5061139;28;20092;-71
2023/10/20 09:46:54;;;;;;;6.82;3.95;;;;;;;11.32;100.00;97819.59;5058231;28;20124;-71
2023/10/20 09:49:24;;;;;;;6.47;3.80;;;;;;;11.33;100.00;97815.84;5059767;28;20464;-73
2023/10/20 09:51:50;;;;;;;6.18;3.83;;;;;;;11.31;100.00;97809.19;5056214;28;20078;-73
2023/10/20 09:54:18;;;;;;;4.53;3.00;;;;;;;11.33;100.00;97799.84;5059547;28;20037;-71
2023/10/20 09:56:45;;;;;;;5.65;3.38;;;;;;;11.33;100.00;97801.72;5050412;28;20032;-72
2023/10/20 09:59:16;;;;;;;6.55;3.03;;;;;;;11.32;100.00;97808.94;5060951;28;20111;-71
2023/10/20 10:01:45;;;;;;;5.57;3.47;;;;;;;11.30;100.00;97811.06;5061277;28;20056;-71
2023/10/20 10:04:11;;;;;;;7.93;4.03;;;;;;;11.28;100.00;97793.75;5056709;28;20103;-70
2023/10/20 10:06:37;;;;;;;4.85;3.47;;;;;;;11.30;100.00;97799.59;5030300;28;20144;-71
2023/10/20 10:09:07;;;;;;;4.70;3.10;;;;;;;11.33;100.00;97809.72;5060326;28;20467;-70
2023/10/20 10:11:39;;;;;;;3.83;2.95;;;;;;;11.34;100.00;97801.44;5054842;28;20037;-71
2023/10/20 10:14:05;;;;;;;5.35;3.22;;;;;;;11.33;100.00;97802.50;5060550;28;20137;-73
2023/10/20 10:16:31;;;;;;;4.72;3.10;;;;;;;11.31;100.00;97798.50;5048885;28;20511;-71
2023/10/20 10:19:09;;;;;;;6.45;3.85;;;;;;;11.32;100.00;97795.59;5055333;28;20040;-70
2023/10/20 10:21:42;;;;;;;8.57;3.33;;;;;;;11.38;100.00;97797.13;5059088;28;20556;-71
2023/10/20 10:24:14;;;;;;;4.93;3.10;;;;;;;11.40;100.00;97792.31;5057083;28;20037;-72
2023/10/20 10:26:50;;;;;;;5.72;2.97;;;;;;;11.41;100.00;97788.56;5053775;28;20363;-76
2023/10/20 10:29:16;;;;;;;5.68;3.67;;;;;;;11.43;100.00;97792.84;5040246;28;20470;-73
2023/10/20 10:31:42;;;;;;;5.80;3.55;;;;;;;11.41;100.00;97771.75;5065701;28;20024;-71
2023/10/20 10:34:07;;;;;;;4.70;3.15;;;;;;;11.43;100.00;97779.50;5038034;28;20124;-70
2023/10/20 10:36:44;;;;;;;4.50;2.92;;;;;;;11.48;100.00;97777.59;5041774;28;20033;-72
2023/10/20 10:39:21;;;;;;;5.30;3.53;;;;;;;11.49;100.00;97776.50;5040541;28;20040;-72
2023/10/20 10:41:47;;;;;;;4.35;2.92;;;;;;;11.52;100.00;97775.94;5060645;28;20589;-73
2023/10/20 10:44:12;;;;;;;3.72;2.92;;;;;;;11.54;100.00;97767.66;5057284;28;20025;-72
2023/10/20 10:46:38;;;;;;;3.28;2.70;;;;;;;11.56;100.00;97770.88;5054147;28;20093;-71
2023/10/20 10:49:08;;;;;;;4.50;2.78;;;;;;;11.54;100.00;97755.13;5059111;28;20035;-70
2023/10/20 10:51:42;;;;;;;4.40;2.92;;;;;;;11.57;100.00;97745.75;5038781;28;20032;-71
2023/10/20 10:54:07;;;;;;;5.03;3.63;;;;;;;11.63;100.00;97748.13;5059681;28;20103;-71
2023/10/20 10:56:33;;;;;;;4.78;3.20;;;;;;;11.63;100.00;97736.63;5059295;28;20116;-71
2023/10/20 10:58:58;;;;;;;6.28;3.33;;;;;;;11.62;100.00;97733.16;5056068;28;20491;-70
2023/10/20 11:01:24;;;;;;;4.53;3.35;;;;;;;11.68;100.00;97731.25;5057692;28;20130;-71
2023/10/20 11:03:49;;;;;;;4.97;3.85;;;;;;;11.71;100.00;97729.88;5035568;28;20025;-70
2023/10/20 11:06:15;;;;;;;5.13;3.70;;;;;;;11.68;100.00;97717.88;5058207;28;20033;-71
2023/10/20 11:08:44;;;;;;;4.43;3.25;;;;;;;11.73;100.00;97725.06;5041797;28;20057;-72
2023/10/20 11:11:10;;;;;;;6.35;4.18;;;;;;;11.73;100.00;97717.84;5061615;28;20032;-71
2023/10/20 11:13:35;;;;;;;6.63;4.40;;;;;;;11.72;100.00;97710.94;5060373;28;20031;-73
2023/10/20 11:16:03;;;;;;;5.05;4.18;;;;;;;11.76;100.00;97708.47;5057684;28;20040;-75
2023/10/20 11:18:29;;;;;;;6.82;4.03;;;;;;;11.72;100.00;97694.13;5059803;28;20032;-71
2023/10/20 11:20:54;;;;;;;7.00;4.25;;;;;;;11.76;100.00;97698.63;5041404;28;20839;-72
2023/10/20 11:23:30;;;;;;;6.05;4.30;;;;;;;11.70;100.00;97686.38;5057882;28;20070;-71
2023/10/20 11:25:57;;;;;;;5.47;3.85;;;;;;;11.74;100.00;97697.31;5056466;28;20468;-72
2023/10/20 11:28:22;;;;;;;7.28;4.78;;;;;;;11.67;100.00;97670.94;5057268;28;20036;-71
2023/10/20 11:30:48;;;;;;;5.43;4.32;;;;;;;11.71;100.00;97698.66;5058769;28;20448;-70
2023/10/20 11:33:15;;;;;;;7.28;4.43;;;;;;;11.70;100.00;97705.06;5058757;28;20128;-72
2023/10/20 11:35:41;;;;;;;7.05;5.28;;;;;;;11.64;100.00;97687.50;5054178;28;20032;-71
2023/10/20 11:38:06;;;;;;;6.63;4.95;;;;;;;11.68;100.00;97696.53;5058014;28;20111;-73
2023/10/20 11:40:32;;;;;;;7.43;5.25;;;;;;;11.68;100.00;97690.41;5039229;28;20064;-71